createdAt,value
2022-08-28T00:00:28.126Z,17.94
2022-08-28T00:02:55.457Z,17.94
2022-08-28T00:05:23.198Z,17.82
2022-08-28T00:07:49.753Z,17.67
2022-08-28T00:10:17.856Z,17.74
2022-08-28T00:12:45.200Z,17.69
2022-08-28T00:15:13.015Z,17.70
2022-08-28T00:17:40.124Z,17.75
2022-08-28T00:20:07.833Z,17.67
2022-08-28T00:22:34.460Z,17.74
2022-08-28T00:25:00.849Z,17.71
2022-08-28T00:27:46.830Z,17.57
2022-08-28T00:30:13.173Z,17.45
2022-08-28T00:32:39.500Z,17.46
2022-08-28T00:35:06.654Z,17.51
2022-08-28T00:37:33.616Z,17.40
2022-08-28T00:40:00.040Z,17.50
2022-08-28T00:42:27.512Z,17.56
2022-08-28T00:44:53.846Z,17.47
2022-08-28T00:47:20.229Z,17.68
2022-08-28T00:49:51.340Z,17.63
2022-08-28T00:52:18.963Z,17.44
2022-08-28T00:54:58.547Z,17.59
2022-08-28T00:57:28.267Z,17.50
2022-08-28T00:59:54.639Z,17.53
2022-08-28T01:02:21.289Z,17.65
2022-08-28T01:04:48.371Z,17.56
2022-08-28T01:07:15.575Z,17.61
2022-08-28T01:09:43.827Z,17.59
2022-08-28T01:12:30.460Z,17.81
2022-08-28T01:14:59.935Z,17.80
2022-08-28T01:17:28.688Z,17.72
2022-08-28T01:19:58.330Z,17.80
2022-08-28T01:22:24.842Z,17.91
2022-08-28T01:24:53.222Z,18.08
2022-08-28T01:27:20.025Z,18.09
2022-08-28T01:29:50.483Z,17.86
2022-08-28T01:32:47.199Z,17.84
2022-08-28T01:35:15.134Z,17.82
2022-08-28T01:37:41.815Z,17.73
2022-08-28T01:40:09.382Z,17.79
2022-08-28T01:42:42.827Z,17.78
2022-08-28T01:45:12.030Z,17.73
2022-08-28T01:47:39.097Z,17.75
2022-08-28T01:50:07.287Z,17.68
2022-08-28T01:52:33.702Z,17.63
2022-08-28T01:55:00.288Z,17.65
2022-08-28T01:57:26.665Z,17.48
2022-08-28T01:59:54.304Z,17.38
2022-08-28T02:02:20.992Z,17.37
2022-08-28T02:04:48.373Z,17.52
2022-08-28T02:07:16.804Z,17.28
2022-08-28T02:09:43.587Z,17.44
2022-08-28T02:12:10.074Z,17.30
2022-08-28T02:14:36.680Z,17.26
2022-08-28T02:17:03.052Z,17.14
2022-08-28T02:19:30.243Z,17.15
2022-08-28T02:21:56.639Z,17.31
2022-08-28T02:24:23.293Z,17.16
2022-08-28T02:26:49.686Z,17.10
2022-08-28T02:29:16.026Z,16.91
2022-08-28T02:31:43.079Z,17.02
2022-08-28T02:34:11.357Z,16.94
2022-08-28T02:36:39.887Z,17.04
2022-08-28T02:39:06.255Z,17.20
2022-08-28T02:41:32.894Z,17.12
2022-08-28T02:43:59.475Z,17.36
2022-08-28T02:46:26.623Z,17.16
2022-08-28T02:48:53.051Z,17.32
2022-08-28T02:51:20.105Z,17.30
2022-08-28T02:53:46.571Z,17.56
2022-08-28T02:56:12.910Z,17.39
2022-08-28T02:58:40.290Z,17.22
2022-08-28T03:01:07.923Z,17.19
2022-08-28T03:03:34.300Z,17.18
2022-08-28T03:06:01.499Z,17.17
2022-08-28T03:08:28.637Z,17.22
2022-08-28T03:10:55.066Z,16.98
2022-08-28T03:13:26.781Z,16.99
2022-08-28T03:15:55.964Z,16.87
2022-08-28T03:18:22.934Z,17.18
2022-08-28T03:20:49.289Z,17.14
2022-08-28T03:23:27.761Z,17.13
2022-08-28T03:26:05.027Z,16.91
2022-08-28T03:28:33.318Z,16.77
2022-08-28T03:31:00.049Z,16.71
2022-08-28T03:33:27.259Z,16.85
2022-08-28T03:35:55.159Z,16.73
2022-08-28T03:38:22.121Z,16.63
2022-08-28T03:40:48.544Z,16.39
2022-08-28T03:43:16.436Z,16.52
2022-08-28T03:45:51.943Z,16.51
2022-08-28T03:48:20.069Z,16.24
2022-08-28T03:50:47.322Z,16.13
2022-08-28T03:53:15.814Z,16.03
2022-08-28T03:55:42.827Z,16.01
2022-08-28T03:58:09.298Z,16.19
2022-08-28T04:00:35.754Z,15.91
2022-08-28T04:03:03.044Z,15.85
2022-08-28T04:05:29.490Z,15.78
2022-08-28T04:07:55.851Z,15.76
2022-08-28T04:10:22.269Z,15.85
2022-08-28T04:12:48.669Z,15.76
2022-08-28T04:15:15.148Z,16.00
2022-08-28T04:17:41.589Z,15.73
2022-08-28T04:20:09.263Z,15.77
2022-08-28T04:22:37.100Z,16.00
2022-08-28T04:25:03.915Z,15.86
2022-08-28T04:27:30.345Z,15.93
2022-08-28T04:29:56.692Z,15.91
2022-08-28T04:32:23.302Z,16.17
2022-08-28T04:34:49.948Z,15.97
2022-08-28T04:37:16.686Z,16.09
2022-08-28T04:39:43.073Z,15.96
2022-08-28T04:42:09.758Z,16.05
2022-08-28T04:44:36.122Z,16.16
2022-08-28T04:47:02.470Z,16.32
2022-08-28T04:49:28.954Z,16.23
2022-08-28T04:51:55.617Z,15.97
2022-08-28T04:54:21.999Z,16.28
2022-08-28T04:56:48.469Z,16.27
2022-08-28T04:59:14.946Z,16.23
2022-08-28T05:01:42.506Z,16.33
2022-08-28T05:04:11.325Z,15.92
2022-08-28T05:06:43.242Z,16.00
2022-08-28T05:09:09.594Z,16.10
2022-08-28T05:11:36.030Z,16.13
2022-08-28T05:14:04.418Z,15.80
2022-08-28T05:16:31.143Z,16.16
2022-08-28T05:19:01.482Z,16.11
2022-08-28T05:21:28.235Z,15.76
2022-08-28T05:23:56.477Z,15.81
2022-08-28T05:26:23.314Z,15.74
2022-08-28T05:28:54.313Z,15.81
2022-08-28T05:31:21.858Z,15.76
2022-08-28T05:33:49.213Z,15.76
2022-08-28T05:36:16.449Z,15.79
2022-08-28T05:38:43.467Z,15.71
2022-08-28T05:41:10.248Z,15.79
2022-08-28T05:43:36.611Z,15.57
2022-08-28T05:46:05.837Z,15.66
2022-08-28T05:48:36.172Z,15.62
2022-08-28T05:51:14.433Z,15.73
2022-08-28T05:53:42.474Z,15.82
2022-08-28T05:56:09.670Z,15.96
2022-08-28T05:58:37.308Z,15.60
2022-08-28T06:01:03.624Z,15.59
2022-08-28T06:03:30.021Z,15.69
2022-08-28T06:05:56.397Z,15.68
2022-08-28T06:08:23.225Z,15.71
2022-08-28T06:10:50.525Z,15.69
2022-08-28T06:13:17.474Z,15.70
2022-08-28T06:15:46.078Z,15.85
2022-08-28T06:18:12.961Z,15.97
2022-08-28T06:20:44.152Z,16.04
2022-08-28T06:23:11.342Z,16.04
2022-08-28T06:25:41.599Z,16.05
2022-08-28T06:28:10.401Z,16.16
2022-08-28T06:30:37.324Z,16.13
2022-08-28T06:33:06.994Z,16.16
2022-08-28T06:35:34.404Z,16.21
2022-08-28T06:38:00.900Z,16.22
2022-08-28T06:40:27.327Z,16.21
2022-08-28T06:42:53.723Z,16.38
2022-08-28T06:45:20.111Z,16.41
2022-08-28T06:47:47.216Z,16.52
2022-08-28T06:50:16.327Z,16.32
2022-08-28T06:52:42.678Z,16.29
2022-08-28T06:55:09.242Z,16.31
2022-08-28T06:57:37.428Z,16.40
2022-08-28T07:00:04.263Z,16.43
2022-08-28T07:02:30.722Z,16.30
2022-08-28T07:04:57.118Z,16.35
2022-08-28T07:07:31.511Z,16.20
2022-08-28T07:09:58.908Z,16.14
2022-08-28T07:12:25.270Z,16.38
2022-08-28T07:14:51.614Z,16.12
2022-08-28T07:17:18.056Z,16.22
2022-08-28T07:19:44.437Z,16.27
2022-08-28T07:22:10.873Z,16.32
2022-08-28T07:24:37.240Z,16.50
2022-08-28T07:27:05.455Z,16.32
2022-08-28T07:29:31.866Z,16.39
2022-08-28T07:31:58.951Z,16.22
2022-08-28T07:34:27.279Z,15.95
2022-08-28T07:36:53.941Z,16.24
2022-08-28T07:39:20.412Z,16.29
2022-08-28T07:41:47.376Z,16.29
2022-08-28T07:44:33.484Z,16.17
2022-08-28T07:47:03.911Z,16.13
2022-08-28T07:49:31.340Z,16.29
2022-08-28T07:51:57.741Z,16.19
2022-08-28T07:54:24.227Z,16.16
2022-08-28T07:56:51.003Z,16.27
2022-08-28T07:59:19.187Z,16.28
2022-08-28T08:01:46.959Z,16.44
2022-08-28T08:04:14.022Z,16.43
2022-08-28T08:06:41.314Z,16.46
2022-08-28T08:09:08.807Z,16.58
2022-08-28T08:11:35.193Z,16.51
2022-08-28T08:14:05.990Z,16.74
2022-08-28T08:16:38.618Z,16.73
2022-08-28T08:19:05.570Z,16.73
2022-08-28T08:21:32.631Z,16.62
2022-08-28T08:23:59.337Z,16.66
2022-08-28T08:26:29.758Z,16.57
2022-08-28T08:28:59.539Z,16.85
2022-08-28T08:31:27.550Z,16.68
2022-08-28T08:33:55.770Z,16.78
2022-08-28T08:36:23.100Z,16.79
2022-08-28T08:38:49.814Z,16.71
2022-08-28T08:41:29.251Z,16.76
2022-08-28T08:43:59.339Z,16.62
2022-08-28T08:46:31.016Z,16.70
2022-08-28T08:49:01.727Z,16.76
2022-08-28T08:51:35.412Z,16.68
2022-08-28T08:54:08.618Z,16.68
2022-08-28T08:56:35.386Z,16.59
2022-08-28T08:59:03.032Z,16.60
2022-08-28T09:01:39.020Z,16.72
2022-08-28T09:04:24.651Z,16.54
2022-08-28T09:06:57.144Z,16.66
2022-08-28T09:09:23.470Z,16.70
2022-08-28T09:12:00.985Z,16.81
2022-08-28T09:15:05.419Z,16.70
2022-08-28T09:17:34.293Z,16.63
2022-08-28T09:20:00.609Z,16.72
2022-08-28T09:22:27.023Z,16.81
2022-08-28T09:24:53.585Z,16.57
2022-08-28T09:27:27.788Z,16.78
2022-08-28T09:29:58.864Z,16.66
2022-08-28T09:32:32.081Z,16.66
2022-08-28T09:35:06.316Z,16.63
2022-08-28T09:37:34.483Z,16.65
2022-08-28T09:40:21.315Z,16.89
2022-08-28T09:43:19.166Z,16.90
2022-08-28T09:45:50.984Z,16.95
2022-08-28T09:48:19.820Z,17.11
2022-08-28T09:50:57.564Z,17.12
2022-08-28T09:53:24.060Z,17.13
2022-08-28T09:55:59.968Z,17.18
2022-08-28T09:58:35.345Z,17.11
2022-08-28T10:01:22.056Z,17.23
2022-08-28T10:03:51.558Z,17.12
2022-08-28T10:06:20.937Z,17.13
2022-08-28T10:08:54.872Z,16.98
2022-08-28T10:11:36.853Z,16.95
2022-08-28T10:14:26.407Z,17.09
2022-08-28T10:16:59.815Z,17.23
2022-08-28T10:19:41.737Z,17.16
2022-08-28T10:22:15.296Z,17.18
2022-08-28T10:24:44.753Z,17.05
2022-08-28T10:27:17.314Z,16.96
2022-08-28T10:29:51.851Z,17.01
2022-08-28T10:32:21.341Z,16.96
2022-08-28T10:34:50.720Z,16.84
2022-08-28T10:37:41.707Z,16.98
2022-08-28T10:40:11.433Z,16.82
2022-08-28T10:42:43.875Z,16.83
2022-08-28T10:45:15.073Z,16.91
2022-08-28T10:47:45.035Z,16.98
2022-08-28T10:50:22.267Z,16.82
2022-08-28T10:52:54.904Z,16.91
2022-08-28T10:55:24.053Z,16.81
2022-08-28T10:58:04.613Z,16.87
2022-08-28T11:00:48.537Z,17.02
2022-08-28T11:03:33.422Z,17.04
2022-08-28T11:06:04.155Z,17.01
2022-08-28T11:08:32.655Z,17.17
2022-08-28T11:11:00.543Z,17.01
2022-08-28T11:13:46.632Z,16.94
2022-08-28T11:16:18.678Z,16.86
2022-08-28T11:18:57.106Z,16.98
2022-08-28T11:21:23.480Z,17.15
2022-08-28T11:23:55.861Z,17.28
2022-08-28T11:26:30.330Z,17.33
2022-08-28T11:28:58.883Z,17.18
2022-08-28T11:31:28.992Z,17.33
2022-08-28T11:33:58.913Z,17.22
2022-08-28T11:36:28.208Z,17.32
2022-08-28T11:38:54.570Z,17.45
2022-08-28T11:41:27.381Z,17.41
2022-08-28T11:43:59.680Z,17.48
2022-08-28T11:46:30.303Z,17.32
2022-08-28T11:48:58.344Z,17.29
2022-08-28T11:51:35.701Z,17.40
2022-08-28T11:54:21.137Z,17.51
2022-08-28T11:56:50.427Z,17.33
2022-08-28T11:59:19.618Z,17.25
2022-08-28T12:01:48.698Z,17.39
2022-08-28T12:04:17.602Z,17.48
2022-08-28T12:06:48.643Z,17.48
2022-08-28T12:09:33.533Z,17.44
2022-08-28T12:12:01.984Z,17.59
2022-08-28T12:14:28.333Z,17.56
2022-08-28T12:17:00.888Z,17.48
2022-08-28T12:19:40.240Z,17.37
2022-08-28T12:22:11.140Z,17.37
2022-08-28T12:24:45.438Z,17.49
2022-08-28T12:27:12.068Z,17.26
2022-08-28T12:29:46.190Z,17.44
2022-08-28T12:32:28.885Z,17.41
2022-08-28T12:34:58.389Z,17.33
2022-08-28T12:37:24.743Z,17.46
2022-08-28T12:39:52.090Z,17.52
2022-08-28T12:42:20.200Z,17.48
2022-08-28T12:44:47.135Z,17.64
2022-08-28T12:47:18.870Z,17.66
2022-08-28T12:49:45.394Z,17.64
2022-08-28T12:52:18.021Z,17.63
2022-08-28T12:54:46.727Z,17.74
2022-08-28T12:57:14.342Z,17.73
2022-08-28T12:59:42.185Z,17.87
2022-08-28T13:02:24.863Z,17.95
2022-08-28T13:04:51.863Z,17.97
2022-08-28T13:07:18.426Z,18.09
2022-08-28T13:09:47.182Z,18.12
2022-08-28T13:12:18.480Z,18.14
2022-08-28T13:14:46.105Z,17.99
2022-08-28T13:17:13.941Z,18.22
2022-08-28T13:19:40.372Z,18.22
2022-08-28T13:22:09.211Z,18.26
2022-08-28T13:24:35.560Z,18.34
2022-08-28T13:27:04.495Z,18.38
2022-08-28T13:29:31.833Z,18.46
2022-08-28T13:32:02.981Z,18.35
2022-08-28T13:34:33.789Z,18.41
2022-08-28T13:37:01.967Z,18.48
2022-08-28T13:39:31.875Z,18.40
2022-08-28T13:42:17.866Z,18.31
2022-08-28T13:44:47.681Z,18.33
2022-08-28T13:47:14.163Z,18.40
2022-08-28T13:49:40.523Z,18.35
2022-08-28T13:52:07.533Z,18.20
2022-08-28T13:54:36.325Z,18.34
2022-08-28T13:57:03.273Z,18.30
2022-08-28T13:59:30.256Z,18.37
2022-08-28T14:02:17.054Z,18.54
2022-08-28T14:04:44.791Z,18.56
2022-08-28T14:07:14.179Z,18.55
2022-08-28T14:09:41.041Z,18.57
2022-08-28T14:12:08.560Z,18.60
2022-08-28T14:14:35.555Z,18.50
2022-08-28T14:17:02.233Z,18.53
2022-08-28T14:19:29.253Z,18.59
2022-08-28T14:21:55.784Z,18.68
2022-08-28T14:24:22.462Z,18.37
2022-08-28T14:26:51.349Z,18.55
2022-08-28T14:29:17.825Z,18.63
2022-08-28T14:31:44.746Z,18.76
2022-08-28T14:34:12.783Z,18.78
2022-08-28T14:36:39.829Z,18.81
2022-08-28T14:39:07.075Z,18.83
2022-08-28T14:41:34.350Z,18.73
2022-08-28T14:44:01.210Z,18.86
2022-08-28T14:46:31.849Z,18.98
2022-08-28T14:48:59.325Z,19.00
2022-08-28T14:51:25.976Z,19.06
2022-08-28T14:53:52.618Z,19.11
2022-08-28T14:56:19.637Z,19.13
2022-08-28T14:58:46.157Z,19.31
2022-08-28T15:01:23.418Z,19.44
2022-08-28T15:03:49.977Z,19.46
2022-08-28T15:06:17.123Z,19.45
2022-08-28T15:08:43.761Z,19.52
2022-08-28T15:11:14.261Z,19.47
2022-08-28T15:13:45.694Z,19.38
2022-08-28T15:16:15.624Z,19.48
2022-08-28T15:18:42.996Z,19.44
2022-08-28T15:21:19.782Z,19.40
2022-08-28T15:23:46.332Z,19.49
2022-08-28T15:26:15.566Z,19.52
2022-08-28T15:28:42.135Z,19.46
2022-08-28T15:31:08.578Z,18.97
2022-08-28T15:33:35.073Z,18.99
2022-08-28T15:36:01.550Z,19.12
2022-08-28T15:38:28.002Z,19.23
2022-08-28T15:41:13.040Z,19.20
2022-08-28T15:43:39.371Z,19.24
2022-08-28T15:46:10.334Z,19.25
2022-08-28T15:48:36.753Z,19.14
2022-08-28T15:51:04.235Z,19.12
2022-08-28T15:53:30.590Z,19.13
2022-08-28T15:55:56.960Z,19.23
2022-08-28T15:58:23.346Z,19.20
2022-08-28T16:00:49.965Z,18.97
2022-08-28T16:03:16.363Z,19.12
2022-08-28T16:05:44.814Z,19.04
2022-08-28T16:08:11.156Z,18.92
2022-08-28T16:10:38.176Z,19.03
2022-08-28T16:13:06.527Z,19.01
2022-08-28T16:15:33.595Z,19.10
2022-08-28T16:17:59.975Z,18.33
2022-08-28T16:20:26.395Z,18.88
2022-08-28T16:22:52.990Z,18.95
2022-08-28T16:25:19.650Z,18.99
2022-08-28T16:27:46.016Z,19.17
2022-08-28T16:30:15.693Z,19.16
2022-08-28T16:32:59.039Z,19.29
2022-08-28T16:35:25.367Z,19.39
2022-08-28T16:37:51.833Z,19.36
2022-08-28T16:40:18.345Z,19.36
2022-08-28T16:42:51.851Z,19.32
2022-08-28T16:45:18.746Z,19.40
2022-08-28T16:47:45.144Z,19.53
2022-08-28T16:50:12.289Z,19.45
2022-08-28T16:52:39.098Z,19.50
2022-08-28T16:55:06.697Z,19.58
2022-08-28T16:57:33.127Z,19.52
2022-08-28T17:00:00.397Z,19.49
2022-08-28T17:02:27.542Z,19.59
2022-08-28T17:04:54.859Z,19.56
2022-08-28T17:07:21.818Z,19.44
2022-08-28T17:09:48.188Z,19.43
2022-08-28T17:12:14.750Z,19.39
2022-08-28T17:14:41.821Z,19.41
2022-08-28T17:17:08.188Z,19.32
2022-08-28T17:19:34.596Z,19.23
2022-08-28T17:22:19.679Z,19.11
2022-08-28T17:24:46.789Z,19.18
2022-08-28T17:27:22.770Z,19.16
2022-08-28T17:29:50.209Z,18.98
2022-08-28T17:32:16.599Z,18.99
2022-08-28T17:34:42.979Z,18.89
2022-08-28T17:37:10.955Z,18.82
2022-08-28T17:39:37.641Z,18.58
2022-08-28T17:42:04.290Z,18.65
2022-08-28T17:44:30.707Z,18.62
2022-08-28T17:46:57.277Z,18.78
2022-08-28T17:49:23.651Z,18.66
2022-08-28T17:51:51.012Z,18.37
2022-08-28T17:54:18.744Z,18.31
2022-08-28T17:56:46.373Z,18.33
2022-08-28T17:59:13.224Z,18.42
2022-08-28T18:01:40.991Z,18.35
2022-08-28T18:04:08.827Z,18.15
2022-08-28T18:06:35.522Z,18.18
2022-08-28T18:09:01.902Z,18.14
2022-08-28T18:11:28.512Z,17.99
2022-08-28T18:13:55.107Z,18.04
2022-08-28T18:16:21.611Z,18.06
2022-08-28T18:18:48.239Z,18.21
2022-08-28T18:21:14.990Z,18.29
2022-08-28T18:23:41.396Z,18.07
2022-08-28T18:26:08.313Z,18.06
2022-08-28T18:28:34.747Z,18.01
2022-08-28T18:31:01.331Z,18.10
2022-08-28T18:33:27.847Z,17.92
2022-08-28T18:35:54.345Z,17.94
2022-08-28T18:38:22.149Z,17.84
2022-08-28T18:40:49.827Z,17.84
2022-08-28T18:43:20.108Z,17.79
2022-08-28T18:45:46.706Z,17.72
2022-08-28T18:48:13.313Z,17.71
2022-08-28T18:50:42.231Z,17.61
2022-08-28T18:53:12.239Z,17.65
2022-08-28T18:55:38.739Z,17.22
2022-08-28T18:58:05.190Z,17.20
2022-08-28T19:00:33.776Z,17.04
2022-08-28T19:03:00.389Z,16.76
2022-08-28T19:05:26.985Z,16.64
2022-08-28T19:07:53.447Z,16.48
2022-08-28T19:10:32.487Z,16.52
2022-08-28T19:13:01.009Z,16.55
2022-08-28T19:15:28.255Z,16.43
2022-08-28T19:17:54.687Z,16.36
2022-08-28T19:20:21.330Z,15.94
2022-08-28T19:22:48.776Z,15.93
2022-08-28T19:25:27.597Z,15.84
2022-08-28T19:27:54.774Z,15.63
2022-08-28T19:30:25.327Z,15.39
2022-08-28T19:32:51.834Z,15.32
2022-08-28T19:35:18.345Z,15.21
2022-08-28T19:37:45.058Z,15.07
2022-08-28T19:40:11.858Z,15.19
2022-08-28T19:42:38.459Z,14.94
2022-08-28T19:45:09.269Z,15.04
2022-08-28T19:47:36.152Z,15.07
2022-08-28T19:50:02.879Z,15.04
2022-08-28T19:52:29.689Z,14.98
2022-08-28T19:54:56.100Z,15.13
2022-08-28T19:57:22.517Z,14.98
2022-08-28T19:59:48.937Z,15.24
2022-08-28T20:02:15.364Z,15.30
2022-08-28T20:04:41.769Z,15.22
2022-08-28T20:07:08.300Z,15.37
2022-08-28T20:09:34.655Z,15.39
2022-08-28T20:12:01.336Z,15.50
2022-08-28T20:14:27.765Z,15.54
2022-08-28T20:16:54.518Z,15.66
2022-08-28T20:19:22.572Z,15.79
2022-08-28T20:21:50.043Z,15.77
2022-08-28T20:24:21.999Z,15.89
2022-08-28T20:26:49.203Z,16.02
2022-08-28T20:29:15.879Z,15.99
2022-08-28T20:31:44.769Z,16.01
2022-08-28T20:34:12.231Z,16.08
2022-08-28T20:36:38.954Z,16.15
2022-08-28T20:39:07.243Z,16.14
2022-08-28T20:41:34.126Z,15.99
2022-08-28T20:44:06.199Z,16.15
2022-08-28T20:46:37.050Z,16.14
2022-08-28T20:49:06.386Z,16.04
2022-08-28T20:51:51.474Z,16.03
2022-08-28T20:54:19.404Z,16.19
2022-08-28T20:56:45.758Z,16.10
2022-08-28T20:59:12.574Z,15.91
2022-08-28T21:01:39.012Z,15.82
2022-08-28T21:04:05.649Z,15.90
2022-08-28T21:06:32.496Z,15.96
2022-08-28T21:08:59.334Z,16.03
2022-08-28T21:11:26.101Z,15.70
2022-08-28T21:13:52.585Z,15.89
2022-08-28T21:16:19.091Z,15.82
2022-08-28T21:19:12.111Z,15.71
2022-08-28T21:21:33.545Z,15.62
2022-08-28T21:23:59.943Z,15.86
2022-08-28T21:26:26.330Z,15.83
2022-08-28T21:28:53.163Z,15.87
2022-08-28T21:31:20.746Z,16.08
2022-08-28T21:33:47.458Z,16.04
2022-08-28T21:36:17.074Z,15.76
2022-08-28T21:38:44.823Z,15.82
2022-08-28T21:41:12.856Z,15.80
2022-08-28T21:43:40.052Z,15.71
2022-08-28T21:46:06.754Z,15.70
2022-08-28T21:48:38.302Z,15.71
2022-08-28T21:51:08.778Z,15.64
2022-08-28T21:53:35.810Z,15.75
2022-08-28T21:56:02.697Z,15.77
2022-08-28T21:58:29.329Z,15.88
2022-08-28T22:00:59.184Z,16.02
2022-08-28T22:03:26.696Z,16.01
2022-08-28T22:05:54.272Z,15.87
2022-08-28T22:08:22.366Z,16.07
2022-08-28T22:10:48.803Z,16.08
2022-08-28T22:13:15.799Z,16.07
2022-08-28T22:15:43.602Z,16.30
2022-08-28T22:18:10.912Z,16.31
2022-08-28T22:20:58.220Z,16.01
2022-08-28T22:23:24.864Z,16.14
2022-08-28T22:25:51.251Z,16.29
2022-08-28T22:28:17.632Z,15.89
2022-08-28T22:30:44.004Z,16.10
2022-08-28T22:33:10.758Z,16.01
2022-08-28T22:35:37.799Z,15.89
2022-08-28T22:38:04.147Z,15.90
2022-08-28T22:40:30.576Z,15.93
2022-08-28T22:42:57.323Z,15.80
2022-08-28T22:45:23.733Z,15.89
2022-08-28T22:47:52.552Z,15.81
2022-08-28T22:50:19.377Z,15.66
2022-08-28T22:52:46.739Z,15.72
2022-08-28T22:55:13.785Z,15.72
2022-08-28T22:57:40.340Z,15.41
2022-08-28T23:00:08.026Z,15.29
2022-08-28T23:02:34.833Z,15.26
2022-08-28T23:05:01.245Z,15.25
2022-08-28T23:07:27.597Z,15.36
2022-08-28T23:09:54.022Z,15.16
2022-08-28T23:12:20.382Z,15.39
2022-08-28T23:14:48.701Z,15.35
2022-08-28T23:17:15.460Z,15.39
2022-08-28T23:19:43.636Z,15.44
2022-08-28T23:22:12.912Z,15.26
2022-08-28T23:24:39.287Z,15.10
2022-08-28T23:27:32.533Z,14.94
2022-08-28T23:29:53.235Z,15.05
2022-08-28T23:32:19.947Z,15.26
2022-08-28T23:34:46.395Z,15.15
2022-08-28T23:37:12.832Z,15.13
2022-08-28T23:39:39.222Z,15.12
2022-08-28T23:42:05.701Z,15.31
2022-08-28T23:44:32.173Z,15.18
2022-08-28T23:46:58.657Z,15.06
2022-08-28T23:49:27.058Z,15.31
2022-08-28T23:51:53.565Z,15.47
2022-08-28T23:54:19.933Z,15.44
2022-08-28T23:56:46.365Z,15.52
2022-08-28T23:59:12.938Z,15.24
